NCAR-RAP Real-Time Weather Data

Output produced by METARs form (10 April 2020  06:59 UTC)
found at http://weather.rap.ucar.edu/surface/
 
KCOS 100654Z 15007KT 10SM SCT100 03/M03 A3015 RMK AO2 SLP192 T00331028 401500022
KCOS 100554Z 17012KT 10SM SCT130 06/M02 A3015 RMK AO2 SLP194 T00561022 10133 20050 51008
KCOS 100454Z 18009KT 10SM BKN055 BKN130 07/M02 A3015 RMK AO2 SLP197 T00671017
KCOS 100354Z 17008KT 10SM FEW070 06/M02 A3014 RMK AO2 SLP200 T00611022
KCOS 100254Z 14011KT 10SM FEW070 08/M02 A3013 RMK AO2 SLP190 T00831022 53010
KCOS 100154Z 14007KT 10SM FEW075 FEW140 09/M02 A3011 RMK AO2 SLP184 T00891022
KCOS 100054Z 13012KT 10SM FEW075 FEW140 12/M02 A3010 RMK AO2 SLP174 T01171017
KCOS 092354Z 14011KT 10SM FEW075 FEW150 13/M02 A3009 RMK AO2 SLP165 T01331017 10150 20100 55001
KCOS 092254Z 16010G18KT 10SM FEW080 FEW150 14/M01 A3008 RMK AO2 SLP159 T01391011
KCOS 092154Z 15009G17KT 10SM FEW060 SCT080 SCT200 14/M01 A3009 RMK AO2 SLP160 T01391011
KCOS 092054Z 13006KT 10SM SCT090 SCT230 13/M01 A3010 RMK AO2 SLP167 T01331011 58016
KCOS 091954Z 11007G15KT 10SM FEW090 SCT250 13/M01 A3012 RMK AO2 SLP176 T01281011
KCOS 091854Z 15003KT 10SM FEW100 SCT240 12/M01 A3013 RMK AO2 SLP176 T01171011
KCOS 091754Z 16005KT 10SM FEW100 SCT240 10/M01 A3015 RMK AO2 SLP183 T01001011 10100 20022 56009
KCOS 091654Z 18004KT 10SM FEW100 SCT240 07/M01 A3015 RMK AO2 SLP184 T00721011
KCOS 091554Z 17005KT 10SM FEW022 SCT250 06/M01 A3017 RMK AO2 SLP198 T00561011
KCOS 091525Z 16009KT 10SM SCT022 BKN230 05/M02 A3018 RMK AO2 T00501017
KCOS 091454Z 15009KT 10SM BKN023 BKN100 BKN200 04/M01 A3019 RMK AO2 SLP202 T00441011 51007
KCOS 091431Z 18009KT 10SM BKN024 BKN200 04/M01 A3019 RMK AO2 T00391011
KCOS 091354Z 16006KT 10SM FEW030 BKN250 04/M01 A3018 RMK AO2 SLP200 T00391006
KCOS 091254Z 21004KT 10SM FEW060 BKN250 03/M01 A3018 RMK AO2 SLP183 T00331011
KCOS 091154Z 16006KT 10SM OVC250 04/M01 A3016 RMK AO2 SLP174 T00391011 10089 20033 53008
KCOS 091054Z 12007KT 10SM OVC250 04/M01 A3015 RMK AO2 SLP167 T00391011
KCOS 090954Z 09007KT 10SM OVC250 05/M02 A3014 RMK AO2 SLP159 T00501017